createdAt,value
2022-09-12T00:01:44.000Z,4.93
2022-09-12T00:04:12.947Z,6.27
2022-09-12T00:06:43.992Z,5.40
2022-09-12T00:09:14.945Z,89.80
2022-09-12T00:11:54.419Z,368.60
2022-09-12T00:14:23.078Z,199.30
2022-09-12T00:16:51.880Z,46.30
2022-09-12T00:19:20.579Z,8.70
2022-09-12T00:21:50.794Z,267.07
2022-09-12T00:24:19.613Z,51.93
2022-09-12T00:26:48.168Z,7.60
2022-09-12T00:29:18.606Z,6.23
2022-09-12T00:31:47.401Z,8.70
2022-09-12T00:34:16.385Z,5.30
2022-09-12T00:36:44.939Z,4.67
2022-09-12T00:39:18.162Z,4.43
2022-09-12T00:41:46.975Z,5.83
2022-09-12T00:44:48.404Z,6.00
2022-09-12T00:47:22.404Z,5.10
2022-09-12T00:49:54.973Z,4.20
2022-09-12T00:52:28.914Z,4.57
2022-09-12T00:55:04.130Z,4.13
2022-09-12T00:57:37.639Z,4.17
2022-09-12T01:00:15.861Z,4.20
2022-09-12T01:02:45.764Z,4.67
2022-09-12T01:05:15.479Z,4.50
2022-09-12T01:07:48.869Z,5.57
2022-09-12T01:10:19.503Z,6.47
2022-09-12T01:12:48.646Z,5.87
2022-09-12T01:15:17.412Z,4.90
2022-09-12T01:18:00.700Z,5.37
2022-09-12T01:20:55.205Z,5.13
2022-09-12T01:23:59.558Z,4.73
2022-09-12T01:27:09.745Z,5.40
2022-09-12T01:29:55.546Z,4.70
2022-09-12T01:32:33.822Z,6.30
2022-09-12T01:35:10.906Z,6.10
2022-09-12T01:37:47.589Z,5.23
2022-09-12T01:40:25.714Z,4.37
2022-09-12T01:43:01.689Z,5.20
2022-09-12T01:45:33.403Z,4.60
2022-09-12T01:48:10.327Z,5.43
2022-09-12T01:50:46.075Z,4.60
2022-09-12T01:53:20.312Z,4.90
2022-09-12T01:55:54.186Z,3.70
2022-09-12T01:58:28.722Z,5.13
2022-09-12T02:01:03.933Z,6.60
2022-09-12T02:03:40.192Z,4.30
2022-09-12T02:06:12.568Z,4.50
2022-09-12T02:08:46.128Z,6.97
2022-09-12T02:11:15.375Z,3.20
2022-09-12T02:13:46.224Z,4.13
2022-09-12T02:16:19.910Z,4.07
2022-09-12T02:18:54.585Z,4.17
2022-09-12T02:21:26.139Z,6.87
2022-09-12T02:24:05.639Z,5.13
2022-09-12T02:26:38.530Z,3.47
2022-09-12T02:29:07.444Z,3.73
2022-09-12T02:31:45.528Z,4.33
2022-09-12T02:34:28.976Z,5.03
2022-09-12T02:37:08.289Z,4.43
2022-09-12T02:39:37.386Z,5.83
2022-09-12T02:42:06.927Z,4.87
2022-09-12T02:44:36.548Z,4.13
2022-09-12T02:47:10.447Z,3.57
2022-09-12T02:49:40.616Z,4.47
2022-09-12T02:52:09.549Z,4.30
2022-09-12T02:54:38.750Z,4.93
2022-09-12T02:57:22.396Z,6.67
2022-09-12T02:59:54.457Z,3.37
2022-09-12T03:02:33.895Z,4.63
2022-09-12T03:05:18.270Z,4.47
2022-09-12T03:08:05.956Z,4.37
2022-09-12T03:10:43.141Z,4.90
2022-09-12T03:13:22.385Z,3.30
2022-09-12T03:16:01.298Z,3.93
2022-09-12T03:18:42.336Z,5.00
2022-09-12T03:21:21.499Z,3.63
2022-09-12T03:24:02.795Z,4.53
2022-09-12T03:26:39.793Z,6.07
2022-09-12T03:29:10.087Z,8.83
2022-09-12T03:31:39.692Z,3.90
2022-09-12T03:34:13.408Z,7.20
2022-09-12T03:36:43.567Z,5.50
2022-09-12T03:39:12.301Z,8.80
2022-09-12T03:41:40.944Z,6.47
2022-09-12T03:44:09.811Z,5.00
2022-09-12T03:46:38.507Z,4.17
2022-09-12T03:49:07.091Z,4.77
2022-09-12T03:51:36.495Z,4.13
2022-09-12T03:54:07.301Z,4.30
2022-09-12T03:56:36.324Z,4.07
2022-09-12T03:59:07.185Z,4.03
2022-09-12T04:01:37.719Z,4.17
2022-09-12T04:04:06.411Z,11.10
2022-09-12T04:06:35.038Z,4.10
2022-09-12T04:09:03.858Z,4.73
2022-09-12T04:11:34.054Z,6.73
2022-09-12T04:14:02.669Z,3.17
2022-09-12T04:16:31.546Z,4.13
2022-09-12T04:19:01.270Z,4.80
2022-09-12T04:21:30.118Z,4.10
2022-09-12T04:23:58.690Z,5.43
2022-09-12T04:26:30.054Z,7.80
2022-09-12T04:29:00.449Z,5.13
2022-09-12T04:31:29.130Z,4.17
2022-09-12T04:33:58.923Z,6.67
2022-09-12T04:36:28.677Z,3.73
2022-09-12T04:38:57.793Z,5.03
2022-09-12T04:41:27.993Z,5.03
2022-09-12T04:43:59.135Z,7.07
2022-09-12T04:46:30.697Z,7.10
2022-09-12T04:48:59.842Z,6.53
2022-09-12T04:51:32.355Z,4.03
2022-09-12T04:54:03.015Z,6.40
2022-09-12T04:56:32.210Z,4.13
2022-09-12T04:59:02.625Z,6.70
2022-09-12T05:01:32.959Z,5.40
2022-09-12T05:04:02.425Z,4.20
2022-09-12T05:06:33.348Z,4.27
2022-09-12T05:09:03.429Z,4.80
2022-09-12T05:12:02.094Z,6.10
2022-09-12T05:14:22.836Z,4.97
2022-09-12T05:16:53.072Z,6.37
2022-09-12T05:19:22.297Z,6.60
2022-09-12T05:21:51.150Z,5.23
2022-09-12T05:24:20.042Z,8.77
2022-09-12T05:26:48.687Z,3.43
2022-09-12T05:29:17.677Z,6.33
2022-09-12T05:31:50.382Z,3.47
2022-09-12T05:34:20.539Z,5.57
2022-09-12T05:36:49.479Z,8.40
2022-09-12T05:39:18.870Z,4.20
2022-09-12T05:41:47.637Z,4.27
2022-09-12T05:44:16.933Z,4.53
2022-09-12T05:46:49.006Z,3.73
2022-09-12T05:49:17.795Z,5.27
2022-09-12T05:51:48.040Z,4.10
2022-09-12T05:54:20.065Z,6.20
2022-09-12T05:56:49.822Z,4.50
2022-09-12T05:59:20.462Z,5.07
2022-09-12T06:01:49.981Z,5.63
2022-09-12T06:04:19.054Z,5.93
2022-09-12T06:06:49.206Z,5.37
2022-09-12T06:09:19.178Z,4.20
2022-09-12T06:11:48.599Z,6.23
2022-09-12T06:14:19.779Z,5.03
2022-09-12T06:16:48.847Z,4.70
2022-09-12T06:19:19.845Z,4.80
2022-09-12T06:21:51.775Z,4.47
2022-09-12T06:24:21.639Z,5.07
2022-09-12T06:26:54.570Z,5.57
2022-09-12T06:29:23.250Z,5.67
2022-09-12T06:31:52.063Z,6.20
2022-09-12T06:34:21.160Z,6.33
2022-09-12T06:36:51.799Z,5.17
2022-09-12T06:39:21.890Z,7.60
2022-09-12T06:41:51.506Z,5.30
2022-09-12T06:44:22.961Z,4.30
2022-09-12T06:46:51.760Z,6.90
2022-09-12T06:49:20.374Z,5.03
2022-09-12T06:51:49.035Z,3.87
2022-09-12T06:54:20.268Z,4.97
2022-09-12T06:56:48.995Z,7.13
2022-09-12T06:59:17.563Z,7.70
2022-09-12T07:01:46.201Z,5.03
2022-09-12T07:04:15.153Z,5.27
2022-09-12T07:06:45.245Z,4.30
2022-09-12T07:09:16.633Z,6.53
2022-09-12T07:11:47.567Z,4.03
2022-09-12T07:14:17.190Z,4.80
2022-09-12T07:16:46.335Z,3.27
2022-09-12T07:19:14.945Z,3.50
2022-09-12T07:21:43.544Z,4.63
2022-09-12T07:24:12.745Z,6.43
2022-09-12T07:26:42.524Z,6.37
2022-09-12T07:29:36.945Z,7.23
2022-09-12T07:32:06.550Z,4.93
2022-09-12T07:34:35.780Z,4.10
2022-09-12T07:37:04.663Z,4.30
2022-09-12T07:39:33.237Z,7.13
2022-09-12T07:42:01.999Z,5.20
2022-09-12T07:44:32.051Z,2.57
2022-09-12T07:47:00.649Z,5.80
2022-09-12T07:49:30.776Z,7.63
2022-09-12T07:52:02.366Z,3.10
2022-09-12T07:54:32.131Z,3.87
2022-09-12T07:57:01.035Z,3.20
2022-09-12T07:59:51.540Z,5.77
2022-09-12T08:02:19.928Z,6.07
2022-09-12T08:04:49.609Z,6.30
2022-09-12T08:07:19.656Z,33.77
2022-09-12T08:09:48.542Z,4.97
2022-09-12T08:12:18.155Z,5.30
2022-09-12T08:14:46.839Z,6.03
2022-09-12T08:17:16.142Z,4.73
2022-09-12T08:19:46.270Z,3.23
2022-09-12T08:22:15.147Z,2.67
2022-09-12T08:24:44.546Z,4.23
2022-09-12T08:27:13.255Z,3.20
2022-09-12T08:29:41.948Z,5.47
2022-09-12T08:32:10.953Z,3.07
2022-09-12T08:34:39.768Z,3.17
2022-09-12T08:37:09.765Z,7.97
2022-09-12T08:39:38.544Z,4.27
2022-09-12T08:42:08.231Z,4.40
2022-09-12T08:45:06.531Z,3.33
2022-09-12T08:47:40.544Z,2.33
2022-09-12T08:50:16.957Z,4.00
2022-09-12T08:53:03.960Z,8.03
2022-09-12T08:55:35.789Z,3.33
2022-09-12T08:58:13.790Z,2.03
2022-09-12T09:00:50.974Z,2.23
2022-09-12T09:03:45.400Z,3.17
2022-09-12T09:06:26.121Z,5.63
2022-09-12T09:09:07.509Z,4.47
2022-09-12T09:11:48.495Z,2.43
2022-09-12T09:14:51.960Z,2.60
2022-09-12T09:17:25.560Z,3.93
2022-09-12T09:20:01.192Z,4.13
2022-09-12T09:22:42.383Z,2.00
2022-09-12T09:25:23.010Z,2.37
2022-09-12T09:27:58.912Z,5.80
2022-09-12T09:30:28.944Z,6.00
2022-09-12T09:33:01.778Z,4.10
2022-09-12T09:35:40.623Z,2.80
2022-09-12T09:38:23.861Z,3.87
2022-09-12T09:41:06.345Z,2.83
2022-09-12T09:43:35.136Z,3.13
2022-09-12T09:46:04.208Z,2.30
2022-09-12T09:48:34.466Z,2.30
2022-09-12T09:51:07.342Z,2.87
2022-09-12T09:53:41.721Z,3.07
2022-09-12T09:56:19.261Z,2.47
2022-09-12T09:58:50.323Z,3.83
2022-09-12T10:01:20.385Z,4.80
2022-09-12T10:03:54.145Z,2.33
2022-09-12T10:06:34.617Z,4.83
2022-09-12T10:09:10.040Z,2.27
2022-09-12T10:11:45.666Z,2.60
2022-09-12T10:14:37.252Z,4.47
2022-09-12T10:17:25.135Z,2.50
2022-09-12T10:20:17.574Z,2.57
2022-09-12T10:22:42.961Z,2.80
2022-09-12T10:25:14.845Z,3.30
2022-09-12T10:27:45.017Z,3.77
2022-09-12T10:30:21.336Z,4.60
2022-09-12T10:32:52.176Z,2.70
2022-09-12T10:35:23.538Z,2.27
2022-09-12T10:37:57.431Z,3.47
2022-09-12T10:40:28.073Z,3.10
2022-09-12T10:43:00.052Z,4.40
2022-09-12T10:45:32.312Z,1.97
2022-09-12T10:48:07.394Z,3.80
2022-09-12T10:50:41.723Z,3.13
2022-09-12T10:53:22.242Z,2.30
2022-09-12T10:56:10.765Z,2.97
2022-09-12T10:59:20.486Z,3.07
2022-09-12T11:01:51.450Z,4.70
2022-09-12T11:04:30.466Z,2.80
2022-09-12T11:07:29.457Z,2.50
2022-09-12T11:10:06.536Z,1.60
2022-09-12T11:12:45.259Z,2.37
2022-09-12T11:15:40.766Z,1.33
2022-09-12T11:18:22.348Z,1.50
2022-09-12T11:21:18.003Z,1.50
2022-09-12T11:24:12.956Z,4.07
2022-09-12T11:26:52.374Z,6.53
2022-09-12T11:29:37.204Z,3.93
2022-09-12T11:32:26.928Z,4.90
2022-09-12T11:35:06.018Z,1.63
2022-09-12T11:37:50.594Z,3.13
2022-09-12T11:40:29.423Z,2.20
2022-09-12T11:43:12.193Z,2.13
2022-09-12T11:45:44.428Z,2.60
2022-09-12T11:48:37.537Z,1.57
2022-09-12T11:51:09.281Z,4.33
2022-09-12T11:53:43.591Z,2.73
2022-09-12T11:56:17.302Z,1.90
2022-09-12T11:58:53.282Z,2.83
2022-09-12T12:01:27.856Z,3.40
2022-09-12T12:03:58.306Z,3.97
2022-09-12T12:06:34.094Z,3.03
2022-09-12T12:09:02.869Z,2.27
2022-09-12T12:11:35.370Z,1.70
2022-09-12T12:14:07.551Z,2.33
2022-09-12T12:16:39.507Z,1.90
2022-09-12T12:19:25.253Z,1.77
2022-09-12T12:21:54.506Z,2.13
2022-09-12T12:24:25.278Z,4.10
2022-09-12T12:27:03.006Z,3.13
2022-09-12T12:29:45.365Z,1.70
2022-09-12T12:32:27.310Z,1.90
2022-09-12T12:35:37.839Z,2.07
2022-09-12T12:38:29.370Z,1.60
2022-09-12T12:41:45.278Z,4.13
2022-09-12T12:44:52.326Z,2.30
2022-09-12T12:47:23.570Z,2.60
2022-09-12T12:49:55.129Z,1.77
2022-09-12T12:52:24.696Z,3.30
2022-09-12T12:54:58.648Z,3.13
2022-09-12T12:57:48.693Z,1.70
2022-09-12T13:00:33.920Z,2.03
2022-09-12T13:03:10.812Z,1.60
2022-09-12T13:05:45.472Z,2.70
2022-09-12T13:08:32.014Z,4.33
2022-09-12T13:11:06.957Z,2.03
2022-09-12T13:13:40.284Z,1.43
2022-09-12T13:16:11.900Z,1.70
2022-09-12T13:18:46.316Z,2.17
2022-09-12T13:21:16.939Z,4.37
2022-09-12T13:23:46.473Z,4.90
2022-09-12T13:26:26.742Z,2.67
2022-09-12T13:29:13.573Z,2.67
2022-09-12T13:31:47.209Z,4.30
2022-09-12T13:34:21.769Z,4.17
2022-09-12T13:37:13.332Z,3.17
2022-09-12T13:39:50.527Z,2.87
2022-09-12T13:42:38.734Z,1.90
2022-09-12T13:45:13.172Z,1.73
2022-09-12T13:47:44.444Z,2.70
2022-09-12T13:50:21.269Z,3.53
2022-09-12T13:52:53.962Z,2.70
2022-09-12T13:55:33.586Z,1.87
2022-09-12T13:58:05.169Z,3.50
2022-09-12T14:00:35.305Z,1.70
2022-09-12T14:03:32.031Z,1.50
2022-09-12T14:06:02.055Z,2.10
2022-09-12T14:08:33.470Z,2.33
2022-09-12T14:11:04.125Z,2.37
2022-09-12T14:13:34.557Z,1.83
2022-09-12T14:16:03.753Z,2.10
2022-09-12T14:18:36.745Z,1.93
2022-09-12T14:21:13.066Z,1.63
2022-09-12T14:23:44.363Z,1.97
2022-09-12T14:26:15.681Z,4.10
2022-09-12T14:28:48.526Z,1.70
2022-09-12T14:31:27.037Z,2.17
2022-09-12T14:33:57.517Z,2.83
2022-09-12T14:36:28.750Z,3.03
2022-09-12T14:39:01.393Z,2.60
2022-09-12T14:41:33.659Z,5.40
2022-09-12T14:44:08.698Z,3.27
2022-09-12T14:46:40.001Z,3.23
2022-09-12T14:49:12.095Z,4.57
2022-09-12T14:51:49.380Z,3.03
2022-09-12T14:54:40.745Z,3.90
2022-09-12T14:57:32.477Z,3.30
2022-09-12T15:00:21.337Z,4.43
2022-09-12T15:02:52.171Z,5.47
2022-09-12T15:05:24.432Z,2.77
2022-09-12T15:07:56.251Z,2.67
2022-09-12T15:10:29.752Z,3.47
2022-09-12T15:13:17.302Z,1.73
2022-09-12T15:15:49.331Z,2.30
2022-09-12T15:18:18.539Z,5.97
2022-09-12T15:20:49.606Z,3.30
2022-09-12T15:23:23.831Z,3.00
2022-09-12T15:25:52.728Z,3.03
2022-09-12T15:28:23.172Z,2.37
2022-09-12T15:30:55.889Z,4.23
2022-09-12T15:33:26.255Z,2.00
2022-09-12T15:35:55.141Z,4.27
2022-09-12T15:38:26.518Z,3.33
2022-09-12T15:40:56.755Z,4.00
2022-09-12T15:43:26.543Z,4.33
2022-09-12T15:45:56.682Z,1.90
2022-09-12T15:48:26.201Z,1.60
2022-09-12T15:51:01.781Z,1.70
2022-09-12T15:53:31.293Z,1.90
2022-09-12T15:55:59.951Z,2.40
2022-09-12T15:58:29.480Z,2.77
2022-09-12T16:00:59.683Z,2.80
2022-09-12T16:03:29.623Z,2.20
2022-09-12T16:05:59.927Z,2.63
2022-09-12T16:08:29.278Z,1.63
2022-09-12T16:11:00.254Z,2.20
2022-09-12T16:13:29.482Z,1.73
2022-09-12T16:16:01.411Z,1.90
2022-09-12T16:18:30.340Z,2.97
2022-09-12T16:20:59.367Z,2.00
2022-09-12T16:23:27.990Z,2.63
2022-09-12T16:26:00.350Z,1.83
2022-09-12T16:28:30.456Z,2.40
2022-09-12T16:31:02.566Z,1.97
2022-09-12T16:33:33.194Z,3.17
2022-09-12T16:36:07.177Z,2.93
2022-09-12T16:38:36.210Z,2.20
2022-09-12T16:41:07.133Z,4.20
2022-09-12T16:43:38.459Z,3.37
2022-09-12T16:46:11.313Z,2.20
2022-09-12T16:48:48.048Z,1.80
2022-09-12T16:51:22.307Z,2.17
2022-09-12T16:53:55.924Z,2.10
2022-09-12T16:56:24.882Z,3.67
2022-09-12T16:58:54.928Z,4.43
2022-09-12T17:01:27.746Z,5.83
2022-09-12T17:03:57.774Z,4.67
2022-09-12T17:06:27.647Z,1.83
2022-09-12T17:08:58.198Z,2.37
2022-09-12T17:11:30.740Z,4.97
2022-09-12T17:14:04.942Z,2.10
2022-09-12T17:16:36.876Z,13.10
2022-09-12T17:19:05.772Z,2.40
2022-09-12T17:21:35.411Z,4.87
2022-09-12T17:24:05.819Z,2.93
2022-09-12T17:26:34.707Z,3.63
2022-09-12T17:29:03.567Z,3.10
2022-09-12T17:31:32.756Z,2.17
2022-09-12T17:34:03.811Z,6.03
2022-09-12T17:36:33.594Z,1.67
2022-09-12T17:39:03.979Z,2.60
2022-09-12T17:41:33.520Z,5.00
2022-09-12T17:44:03.791Z,4.13
2022-09-12T17:46:36.043Z,2.20
2022-09-12T17:49:07.990Z,3.93
2022-09-12T17:51:37.156Z,2.50
2022-09-12T17:54:08.565Z,4.90
2022-09-12T17:56:38.125Z,3.73
2022-09-12T17:59:08.372Z,4.77
2022-09-12T18:01:54.793Z,2.97
2022-09-12T18:04:25.484Z,2.60
2022-09-12T18:06:54.581Z,3.57
2022-09-12T18:09:25.325Z,3.57
2022-09-12T18:11:54.417Z,4.67
2022-09-12T18:14:23.800Z,2.50
2022-09-12T18:16:53.242Z,3.10
2022-09-12T18:19:23.636Z,2.97
2022-09-12T18:21:53.909Z,5.80
2022-09-12T18:24:22.894Z,5.47
2022-09-12T18:26:51.575Z,5.43
2022-09-12T18:29:20.968Z,5.17
2022-09-12T18:31:50.425Z,3.10
2022-09-12T18:34:19.792Z,5.27
2022-09-12T18:36:50.237Z,4.40
2022-09-12T18:39:25.340Z,4.23
2022-09-12T18:41:57.219Z,4.90
2022-09-12T18:44:25.827Z,6.30
2022-09-12T18:46:54.648Z,5.03
2022-09-12T18:49:24.943Z,29.67
2022-09-12T18:51:53.874Z,38.63
2022-09-12T18:54:25.816Z,8.27
2022-09-12T18:56:55.497Z,5.10
2022-09-12T18:59:26.892Z,3.43
2022-09-12T19:01:56.418Z,3.20
2022-09-12T19:04:25.270Z,5.23
2022-09-12T19:06:54.262Z,6.57
2022-09-12T19:09:25.032Z,7.53
2022-09-12T19:11:54.048Z,6.17
2022-09-12T19:14:25.366Z,2.30
2022-09-12T19:16:55.300Z,5.47
2022-09-12T19:19:24.723Z,4.27
2022-09-12T19:22:01.856Z,5.87
2022-09-12T19:24:33.110Z,4.93
2022-09-12T19:27:05.883Z,5.97
2022-09-12T19:29:36.153Z,7.40
2022-09-12T19:32:06.760Z,2.10
2022-09-12T19:34:36.898Z,2.73
2022-09-12T19:37:06.208Z,7.47
2022-09-12T19:39:36.674Z,4.47
2022-09-12T19:42:05.639Z,3.47
2022-09-12T19:44:34.299Z,3.53
2022-09-12T19:47:02.908Z,2.40
2022-09-12T19:49:31.631Z,5.67
2022-09-12T19:52:00.285Z,3.43
2022-09-12T19:54:28.874Z,6.20
2022-09-12T19:56:59.003Z,5.43
2022-09-12T19:59:27.576Z,4.90
2022-09-12T20:01:56.260Z,3.10
2022-09-12T20:04:25.054Z,4.90
2022-09-12T20:06:55.213Z,3.33
2022-09-12T20:09:24.511Z,6.10
2022-09-12T20:11:57.202Z,5.50
2022-09-12T20:14:28.459Z,5.80
2022-09-12T20:16:58.043Z,7.10
2022-09-12T20:19:27.766Z,8.10
2022-09-12T20:21:58.422Z,7.10
2022-09-12T20:24:28.797Z,8.90
2022-09-12T20:26:58.216Z,9.83
2022-09-12T20:29:28.467Z,7.70
2022-09-12T20:31:57.140Z,12.07
2022-09-12T20:34:25.750Z,12.23
2022-09-12T20:36:54.410Z,17.07
2022-09-12T20:39:24.631Z,11.03
2022-09-12T20:41:53.347Z,11.60
2022-09-12T20:44:22.542Z,5.10
2022-09-12T20:46:53.027Z,8.17
2022-09-12T20:49:21.779Z,9.27
2022-09-12T20:51:50.677Z,7.13
2022-09-12T20:54:19.275Z,6.77
2022-09-12T20:56:48.178Z,10.13
2022-09-12T20:59:17.229Z,8.20
2022-09-12T21:01:46.022Z,10.40
2022-09-12T21:04:16.570Z,11.33
2022-09-12T21:06:45.455Z,147.30
2022-09-12T21:09:15.101Z,275.90
2022-09-12T21:11:43.876Z,98.47
2022-09-12T21:14:12.484Z,138.70
2022-09-12T21:16:41.070Z,369.97
2022-09-12T21:19:09.832Z,27.50
2022-09-12T21:21:39.917Z,6.70
2022-09-12T21:24:11.600Z,9.27
2022-09-12T21:26:40.254Z,8.40
2022-09-12T21:29:08.886Z,136.53
2022-09-12T21:31:37.513Z,150.13
2022-09-12T21:34:06.196Z,445.93
2022-09-12T21:36:34.869Z,400.77
2022-09-12T21:39:05.483Z,552.83
2022-09-12T21:41:34.587Z,86.80
2022-09-12T21:44:03.897Z,11.47
2022-09-12T21:46:33.495Z,5.27
2022-09-12T21:49:02.437Z,6.70
2022-09-12T21:51:31.340Z,7.03
2022-09-12T21:54:00.481Z,7.60
2022-09-12T21:56:30.671Z,6.50
2022-09-12T21:58:59.426Z,5.43
2022-09-12T22:01:28.254Z,8.00
2022-09-12T22:03:57.152Z,6.50
2022-09-12T22:06:26.063Z,10.10
2022-09-12T22:08:54.799Z,6.30
2022-09-12T22:11:24.002Z,7.80
2022-09-12T22:13:54.757Z,7.23
2022-09-12T22:16:23.459Z,6.37
2022-09-12T22:18:53.038Z,6.47
2022-09-12T22:21:24.603Z,5.73
2022-09-12T22:24:10.986Z,7.23
2022-09-12T22:26:43.968Z,9.53
2022-09-12T22:29:14.917Z,7.70
2022-09-12T22:31:43.791Z,5.67
2022-09-12T22:34:12.612Z,5.37
2022-09-12T22:36:41.458Z,17.30
2022-09-12T22:39:10.532Z,11.37
2022-09-12T22:41:39.235Z,8.97
2022-09-12T22:44:08.454Z,5.53
2022-09-12T22:46:39.377Z,7.50
2022-09-12T22:49:08.853Z,6.13
2022-09-12T22:51:37.696Z,7.00
2022-09-12T22:54:07.243Z,4.50
2022-09-12T22:56:35.925Z,4.87
2022-09-12T22:59:04.741Z,4.60
2022-09-12T23:01:33.400Z,6.00
2022-09-12T23:04:04.628Z,6.63
2022-09-12T23:06:33.403Z,6.97
2022-09-12T23:09:02.111Z,11.93
2022-09-12T23:11:30.699Z,10.37
2022-09-12T23:13:59.417Z,7.33
2022-09-12T23:16:28.574Z,4.47
2022-09-12T23:18:57.443Z,6.40
2022-09-12T23:21:27.568Z,5.60
2022-09-12T23:23:56.732Z,6.77
2022-09-12T23:26:28.505Z,7.67
2022-09-12T23:28:59.876Z,7.40
2022-09-12T23:31:31.272Z,6.33
2022-09-12T23:34:03.394Z,7.37
2022-09-12T23:36:33.709Z,8.10
2022-09-12T23:39:02.453Z,8.47
2022-09-12T23:41:31.408Z,8.60
2022-09-12T23:44:00.394Z,8.83
2022-09-12T23:46:29.313Z,6.30
2022-09-12T23:48:57.869Z,7.10
2022-09-12T23:51:27.324Z,7.43
2022-09-12T23:53:57.510Z,9.20
2022-09-12T23:56:26.295Z,7.70
2022-09-12T23:58:55.001Z,6.27
